sensor_id;sensor_type;location;lat;lon;timestamp;pressure;altitude;pressure_sealevel;temperature
79495;BMP180;68951;53.130;18.104;2024-02-04T00:02:05;100535.00;;;
79495;BMP180;68951;53.130;18.104;2024-02-04T00:04:33;100526.20;;;
79495;BMP180;68951;53.130;18.104;2024-02-04T00:07:01;100527.80;;;
79495;BMP180;68951;53.130;18.104;2024-02-04T00:09:27;100532.00;;;
79495;BMP180;68951;53.130;18.104;2024-02-04T00:11:55;100532.00;;;
79495;BMP180;68951;53.130;18.104;2024-02-04T00:14:22;100536.00;;;
79495;BMP180;68951;53.130;18.104;2024-02-04T00:16:49;100528.40;;;
79495;BMP180;68951;53.130;18.104;2024-02-04T00:19:15;100538.40;;;
79495;BMP180;68951;53.130;18.104;2024-02-04T00:21:42;100539.00;;;
79495;BMP180;68951;53.130;18.104;2024-02-04T00:24:09;100530.40;;;
79495;BMP180;68951;53.130;18.104;2024-02-04T00:26:36;100520.80;;;
79495;BMP180;68951;53.130;18.104;2024-02-04T00:29:02;100521.00;;;
79495;BMP180;68951;53.130;18.104;2024-02-04T00:31:29;100512.00;;;
79495;BMP180;68951;53.130;18.104;2024-02-04T00:33:56;100517.00;;;
79495;BMP180;68951;53.130;18.104;2024-02-04T00:36:23;100525.40;;;
79495;BMP180;68951;53.130;18.104;2024-02-04T00:38:49;100526.40;;;
79495;BMP180;68951;53.130;18.104;2024-02-04T00:41:16;100531.00;;;
79495;BMP180;68951;53.130;18.104;2024-02-04T00:43:43;100523.00;;;
79495;BMP180;68951;53.130;18.104;2024-02-04T00:46:10;100520.80;;;
79495;BMP180;68951;53.130;18.104;2024-02-04T00:48:37;100529.80;;;
79495;BMP180;68951;53.130;18.104;2024-02-04T00:51:04;100526.00;;;
79495;BMP180;68951;53.130;18.104;2024-02-04T00:53:31;100525.40;;;
79495;BMP180;68951;53.130;18.104;2024-02-04T00:56:02;100528.80;;;
79495;BMP180;68951;53.130;18.104;2024-02-04T00:58:30;100524.60;;;
79495;BMP180;68951;53.130;18.104;2024-02-04T01:00:56;100513.20;;;
79495;BMP180;68951;53.130;18.104;2024-02-04T01:03:23;100515.80;;;
79495;BMP180;68951;53.130;18.104;2024-02-04T01:05:51;100516.00;;;
79495;BMP180;68951;53.130;18.104;2024-02-04T01:08:18;100513.20;;;
79495;BMP180;68951;53.130;18.104;2024-02-04T01:10:44;100514.00;;;
79495;BMP180;68951;53.130;18.104;2024-02-04T01:13:11;100520.60;;;
79495;BMP180;68951;53.130;18.104;2024-02-04T01:15:38;100518.00;;;
79495;BMP180;68951;53.130;18.104;2024-02-04T01:18:05;100518.40;;;
79495;BMP180;68951;53.130;18.104;2024-02-04T01:20:31;100510.80;;;
79495;BMP180;68951;53.130;18.104;2024-02-04T01:22:58;100503.40;;;
79495;BMP180;68951;53.130;18.104;2024-02-04T01:25:25;100502.80;;;
79495;BMP180;68951;53.130;18.104;2024-02-04T01:27:51;100508.20;;;
79495;BMP180;68951;53.130;18.104;2024-02-04T01:30:18;100509.00;;;
79495;BMP180;68951;53.130;18.104;2024-02-04T01:32:45;100522.60;;;
79495;BMP180;68951;53.130;18.104;2024-02-04T01:35:12;100510.80;;;
79495;BMP180;68951;53.130;18.104;2024-02-04T01:37:41;100512.00;;;
79495;BMP180;68951;53.130;18.104;2024-02-04T01:40:10;100508.60;;;
79495;BMP180;68951;53.130;18.104;2024-02-04T01:42:37;100512.60;;;
79495;BMP180;68951;53.130;18.104;2024-02-04T01:45:04;100511.60;;;
79495;BMP180;68951;53.130;18.104;2024-02-04T01:47:31;100513.40;;;
79495;BMP180;68951;53.130;18.104;2024-02-04T01:49:58;100505.40;;;
79495;BMP180;68951;53.130;18.104;2024-02-04T01:52:25;100499.20;;;
79495;BMP180;68951;53.130;18.104;2024-02-04T01:54:53;100481.20;;;
79495;BMP180;68951;53.130;18.104;2024-02-04T01:57:20;100478.40;;;
79495;BMP180;68951;53.130;18.104;2024-02-04T01:59:48;100473.80;;;
79495;BMP180;68951;53.130;18.104;2024-02-04T02:02:15;100491.80;;;
79495;BMP180;68951;53.130;18.104;2024-02-04T02:04:43;100484.20;;;
79495;BMP180;68951;53.130;18.104;2024-02-04T02:07:10;100478.20;;;
79495;BMP180;68951;53.130;18.104;2024-02-04T02:09:37;100477.40;;;
79495;BMP180;68951;53.130;18.104;2024-02-04T02:12:12;100484.80;;;
79495;BMP180;68951;53.130;18.104;2024-02-04T02:14:44;100481.60;;;
79495;BMP180;68951;53.130;18.104;2024-02-04T02:17:19;100501.00;;;
79495;BMP180;68951;53.130;18.104;2024-02-04T02:20:00;100493.40;;;
79495;BMP180;68951;53.130;18.104;2024-02-04T02:22:49;100505.80;;;
79495;BMP180;68951;53.130;18.104;2024-02-04T02:25:19;100496.20;;;
79495;BMP180;68951;53.130;18.104;2024-02-04T02:27:50;100489.00;;;
79495;BMP180;68951;53.130;18.104;2024-02-04T02:30:17;100490.00;;;
79495;BMP180;68951;53.130;18.104;2024-02-04T02:32:47;100495.60;;;
79495;BMP180;68951;53.130;18.104;2024-02-04T02:35:16;100491.20;;;
79495;BMP180;68951;53.130;18.104;2024-02-04T02:38:36;100491.80;;;
79495;BMP180;68951;53.130;18.104;2024-02-04T02:41:08;100495.40;;;
79495;BMP180;68951;53.130;18.104;2024-02-04T02:43:37;100483.80;;;
79495;BMP180;68951;53.130;18.104;2024-02-04T02:46:07;100478.60;;;
79495;BMP180;68951;53.130;18.104;2024-02-04T02:48:35;100471.60;;;
79495;BMP180;68951;53.130;18.104;2024-02-04T02:51:02;100481.00;;;
79495;BMP180;68951;53.130;18.104;2024-02-04T02:53:28;100489.40;;;
79495;BMP180;68951;53.130;18.104;2024-02-04T02:55:55;100499.80;;;
79495;BMP180;68951;53.130;18.104;2024-02-04T02:58:22;100506.00;;;
79495;BMP180;68951;53.130;18.104;2024-02-04T03:00:49;100512.80;;;
79495;BMP180;68951;53.130;18.104;2024-02-04T03:03:15;100515.60;;;
79495;BMP180;68951;53.130;18.104;2024-02-04T03:05:42;100516.00;;;
79495;BMP180;68951;53.130;18.104;2024-02-04T03:08:09;100519.60;;;
79495;BMP180;68951;53.130;18.104;2024-02-04T03:10:35;100525.40;;;
79495;BMP180;68951;53.130;18.104;2024-02-04T03:13:02;100520.20;;;
79495;BMP180;68951;53.130;18.104;2024-02-04T03:15:29;100527.20;;;
79495;BMP180;68951;53.130;18.104;2024-02-04T03:17:56;100522.40;;;
79495;BMP180;68951;53.130;18.104;2024-02-04T03:20:22;100523.00;;;
79495;BMP180;68951;53.130;18.104;2024-02-04T03:22:49;100522.60;;;
79495;BMP180;68951;53.130;18.104;2024-02-04T03:25:16;100524.20;;;
79495;BMP180;68951;53.130;18.104;2024-02-04T03:27:43;100521.60;;;
79495;BMP180;68951;53.130;18.104;2024-02-04T03:30:10;100526.00;;;
79495;BMP180;68951;53.130;18.104;2024-02-04T03:32:36;100528.40;;;
79495;BMP180;68951;53.130;18.104;2024-02-04T03:35:04;100532.60;;;
79495;BMP180;68951;53.130;18.104;2024-02-04T03:37:30;100542.80;;;
79495;BMP180;68951;53.130;18.104;2024-02-04T03:39:57;100535.00;;;
79495;BMP180;68951;53.130;18.104;2024-02-04T03:42:24;100535.20;;;
79495;BMP180;68951;53.130;18.104;2024-02-04T03:44:51;100536.80;;;
79495;BMP180;68951;53.130;18.104;2024-02-04T03:47:17;100540.20;;;
79495;BMP180;68951;53.130;18.104;2024-02-04T03:49:44;100539.20;;;
79495;BMP180;68951;53.130;18.104;2024-02-04T03:52:11;100535.80;;;
79495;BMP180;68951;53.130;18.104;2024-02-04T03:54:38;100544.40;;;
79495;BMP180;68951;53.130;18.104;2024-02-04T03:57:04;100544.80;;;
79495;BMP180;68951;53.130;18.104;2024-02-04T03:59:31;100545.40;;;
79495;BMP180;68951;53.130;18.104;2024-02-04T04:01:58;100531.40;;;
79495;BMP180;68951;53.130;18.104;2024-02-04T04:04:25;100524.60;;;
79495;BMP180;68951;53.130;18.104;2024-02-04T04:06:52;100511.60;;;
79495;BMP180;68951;53.130;18.104;2024-02-04T04:09:19;100500.60;;;
79495;BMP180;68951;53.130;18.104;2024-02-04T04:11:46;100499.40;;;
79495;BMP180;68951;53.130;18.104;2024-02-04T04:14:12;100499.60;;;
79495;BMP180;68951;53.130;18.104;2024-02-04T04:16:39;100499.40;;;
79495;BMP180;68951;53.130;18.104;2024-02-04T04:19:06;100502.20;;;
79495;BMP180;68951;53.130;18.104;2024-02-04T04:21:33;100503.60;;;
79495;BMP180;68951;53.130;18.104;2024-02-04T04:24:00;100503.40;;;
79495;BMP180;68951;53.130;18.104;2024-02-04T04:26:26;100498.80;;;
79495;BMP180;68951;53.130;18.104;2024-02-04T04:28:54;100498.20;;;
79495;BMP180;68951;53.130;18.104;2024-02-04T04:31:21;100487.40;;;
79495;BMP180;68951;53.130;18.104;2024-02-04T04:33:47;100496.60;;;
79495;BMP180;68951;53.130;18.104;2024-02-04T04:36:14;100486.80;;;
79495;BMP180;68951;53.130;18.104;2024-02-04T04:38:41;100488.20;;;
79495;BMP180;68951;53.130;18.104;2024-02-04T04:41:07;100489.80;;;
79495;BMP180;68951;53.130;18.104;2024-02-04T04:43:37;100495.20;;;
79495;BMP180;68951;53.130;18.104;2024-02-04T04:46:04;100497.80;;;
79495;BMP180;68951;53.130;18.104;2024-02-04T04:48:31;100499.00;;;
79495;BMP180;68951;53.130;18.104;2024-02-04T04:50:58;100493.60;;;
79495;BMP180;68951;53.130;18.104;2024-02-04T04:53:24;100490.20;;;
79495;BMP180;68951;53.130;18.104;2024-02-04T04:55:51;100487.40;;;
79495;BMP180;68951;53.130;18.104;2024-02-04T04:58:18;100477.60;;;
79495;BMP180;68951;53.130;18.104;2024-02-04T05:00:44;100482.60;;;
79495;BMP180;68951;53.130;18.104;2024-02-04T05:03:11;100484.40;;;
79495;BMP180;68951;53.130;18.104;2024-02-04T05:05:38;100486.20;;;
79495;BMP180;68951;53.130;18.104;2024-02-04T05:08:05;100472.40;;;
79495;BMP180;68951;53.130;18.104;2024-02-04T05:10:32;100468.40;;;
79495;BMP180;68951;53.130;18.104;2024-02-04T05:12:59;100467.40;;;
79495;BMP180;68951;53.130;18.104;2024-02-04T05:15:25;100467.20;;;
79495;BMP180;68951;53.130;18.104;2024-02-04T05:17:52;100459.60;;;
79495;BMP180;68951;53.130;18.104;2024-02-04T05:20:19;100467.20;;;
79495;BMP180;68951;53.130;18.104;2024-02-04T05:22:46;100458.40;;;
79495;BMP180;68951;53.130;18.104;2024-02-04T05:25:13;100462.20;;;
79495;BMP180;68951;53.130;18.104;2024-02-04T05:27:40;100465.00;;;
79495;BMP180;68951;53.130;18.104;2024-02-04T05:30:07;100457.60;;;
79495;BMP180;68951;53.130;18.104;2024-02-04T05:32:35;100455.60;;;
79495;BMP180;68951;53.130;18.104;2024-02-04T05:35:02;100449.00;;;
79495;BMP180;68951;53.130;18.104;2024-02-04T05:37:29;100461.20;;;
79495;BMP180;68951;53.130;18.104;2024-02-04T05:39:55;100453.40;;;
79495;BMP180;68951;53.130;18.104;2024-02-04T05:42:22;100451.00;;;
79495;BMP180;68951;53.130;18.104;2024-02-04T05:44:49;100446.60;;;
79495;BMP180;68951;53.130;18.104;2024-02-04T05:47:16;100450.80;;;
79495;BMP180;68951;53.130;18.104;2024-02-04T05:49:43;100449.20;;;
79495;BMP180;68951;53.130;18.104;2024-02-04T05:52:11;100448.40;;;
79495;BMP180;68951;53.130;18.104;2024-02-04T05:54:38;100454.60;;;
79495;BMP180;68951;53.130;18.104;2024-02-04T05:57:08;100455.80;;;
79495;BMP180;68951;53.130;18.104;2024-02-04T05:59:34;100458.80;;;
79495;BMP180;68951;53.130;18.104;2024-02-04T06:02:01;100463.80;;;
79495;BMP180;68951;53.130;18.104;2024-02-04T06:04:29;100448.80;;;
79495;BMP180;68951;53.130;18.104;2024-02-04T06:06:56;100455.60;;;
79495;BMP180;68951;53.130;18.104;2024-02-04T06:09:22;100455.60;;;
79495;BMP180;68951;53.130;18.104;2024-02-04T06:11:49;100448.00;;;
79495;BMP180;68951;53.130;18.104;2024-02-04T06:14:16;100451.20;;;
79495;BMP180;68951;53.130;18.104;2024-02-04T06:16:43;100445.00;;;
79495;BMP180;68951;53.130;18.104;2024-02-04T06:19:10;100443.00;;;
79495;BMP180;68951;53.130;18.104;2024-02-04T06:21:39;100440.80;;;
79495;BMP180;68951;53.130;18.104;2024-02-04T06:24:07;100447.80;;;
79495;BMP180;68951;53.130;18.104;2024-02-04T06:26:38;100449.20;;;
79495;BMP180;68951;53.130;18.104;2024-02-04T06:29:05;100442.00;;;
79495;BMP180;68951;53.130;18.104;2024-02-04T06:31:32;100448.20;;;
79495;BMP180;68951;53.130;18.104;2024-02-04T06:33:58;100449.60;;;
79495;BMP180;68951;53.130;18.104;2024-02-04T06:36:25;100439.00;;;
79495;BMP180;68951;53.130;18.104;2024-02-04T06:38:52;100441.60;;;
79495;BMP180;68951;53.130;18.104;2024-02-04T06:41:18;100441.20;;;
79495;BMP180;68951;53.130;18.104;2024-02-04T06:43:45;100435.00;;;
79495;BMP180;68951;53.130;18.104;2024-02-04T06:46:12;100439.40;;;
79495;BMP180;68951;53.130;18.104;2024-02-04T06:48:39;100432.20;;;
79495;BMP180;68951;53.130;18.104;2024-02-04T06:51:06;100439.00;;;
79495;BMP180;68951;53.130;18.104;2024-02-04T06:53:33;100436.60;;;
79495;BMP180;68951;53.130;18.104;2024-02-04T06:56:00;100427.00;;;
79495;BMP180;68951;53.130;18.104;2024-02-04T06:58:26;100441.40;;;
79495;BMP180;68951;53.130;18.104;2024-02-04T07:00:54;100446.40;;;
79495;BMP180;68951;53.130;18.104;2024-02-04T07:03:21;100445.20;;;
79495;BMP180;68951;53.130;18.104;2024-02-04T07:05:48;100439.60;;;
79495;BMP180;68951;53.130;18.104;2024-02-04T07:08:15;100444.40;;;
79495;BMP180;68951;53.130;18.104;2024-02-04T07:10:42;100445.00;;;
79495;BMP180;68951;53.130;18.104;2024-02-04T07:13:09;100457.60;;;
79495;BMP180;68951;53.130;18.104;2024-02-04T07:15:38;100444.80;;;
79495;BMP180;68951;53.130;18.104;2024-02-04T07:18:05;100447.00;;;
79495;BMP180;68951;53.130;18.104;2024-02-04T07:20:32;100447.80;;;
79495;BMP180;68951;53.130;18.104;2024-02-04T07:22:59;100443.80;;;
79495;BMP180;68951;53.130;18.104;2024-02-04T07:25:25;100439.40;;;
79495;BMP180;68951;53.130;18.104;2024-02-04T07:27:53;100434.60;;;
79495;BMP180;68951;53.130;18.104;2024-02-04T07:30:20;100429.60;;;
79495;BMP180;68951;53.130;18.104;2024-02-04T07:32:50;100427.00;;;
79495;BMP180;68951;53.130;18.104;2024-02-04T07:35:17;100425.40;;;
79495;BMP180;68951;53.130;18.104;2024-02-04T07:37:44;100431.00;;;
79495;BMP180;68951;53.130;18.104;2024-02-04T07:40:11;100425.00;;;
79495;BMP180;68951;53.130;18.104;2024-02-04T07:42:38;100423.80;;;
79495;BMP180;68951;53.130;18.104;2024-02-04T07:45:05;100421.00;;;
79495;BMP180;68951;53.130;18.104;2024-02-04T07:47:36;100409.00;;;
79495;BMP180;68951;53.130;18.104;2024-02-04T07:50:03;100406.00;;;
79495;BMP180;68951;53.130;18.104;2024-02-04T07:52:30;100411.40;;;
79495;BMP180;68951;53.130;18.104;2024-02-04T07:54:56;100405.80;;;
79495;BMP180;68951;53.130;18.104;2024-02-04T07:57:23;100407.20;;;
79495;BMP180;68951;53.130;18.104;2024-02-04T07:59:50;100403.80;;;
79495;BMP180;68951;53.130;18.104;2024-02-04T08:02:18;100406.00;;;
79495;BMP180;68951;53.130;18.104;2024-02-04T08:04:44;100417.00;;;
79495;BMP180;68951;53.130;18.104;2024-02-04T08:07:11;100416.40;;;
79495;BMP180;68951;53.130;18.104;2024-02-04T08:09:38;100413.60;;;
79495;BMP180;68951;53.130;18.104;2024-02-04T08:12:05;100415.20;;;
79495;BMP180;68951;53.130;18.104;2024-02-04T08:14:32;100416.00;;;
79495;BMP180;68951;53.130;18.104;2024-02-04T08:16:59;100416.20;;;
79495;BMP180;68951;53.130;18.104;2024-02-04T08:19:25;100413.60;;;
79495;BMP180;68951;53.130;18.104;2024-02-04T08:21:52;100413.60;;;
79495;BMP180;68951;53.130;18.104;2024-02-04T08:24:19;100406.60;;;
79495;BMP180;68951;53.130;18.104;2024-02-04T08:26:46;100399.00;;;
79495;BMP180;68951;53.130;18.104;2024-02-04T08:29:12;100398.80;;;
79495;BMP180;68951;53.130;18.104;2024-02-04T08:31:39;100413.20;;;
79495;BMP180;68951;53.130;18.104;2024-02-04T08:34:06;100390.20;;;
79495;BMP180;68951;53.130;18.104;2024-02-04T08:36:33;100397.40;;;
79495;BMP180;68951;53.130;18.104;2024-02-04T08:39:00;100398.40;;;
79495;BMP180;68951;53.130;18.104;2024-02-04T08:41:27;100402.00;;;
79495;BMP180;68951;53.130;18.104;2024-02-04T08:43:54;100405.40;;;
79495;BMP180;68951;53.130;18.104;2024-02-04T08:46:20;100407.40;;;
79495;BMP180;68951;53.130;18.104;2024-02-04T08:48:47;100405.40;;;
79495;BMP180;68951;53.130;18.104;2024-02-04T08:51:14;100406.80;;;
79495;BMP180;68951;53.130;18.104;2024-02-04T08:53:42;100405.00;;;
79495;BMP180;68951;53.130;18.104;2024-02-04T08:56:09;100400.80;;;
79495;BMP180;68951;53.130;18.104;2024-02-04T08:58:36;100393.40;;;
79495;BMP180;68951;53.130;18.104;2024-02-04T09:01:04;100386.20;;;
79495;BMP180;68951;53.130;18.104;2024-02-04T09:03:32;100388.40;;;
79495;BMP180;68951;53.130;18.104;2024-02-04T09:05:59;100389.60;;;
79495;BMP180;68951;53.130;18.104;2024-02-04T09:08:26;100377.60;;;
79495;BMP180;68951;53.130;18.104;2024-02-04T09:10:53;100386.60;;;
79495;BMP180;68951;53.130;18.104;2024-02-04T09:13:20;100380.60;;;
79495;BMP180;68951;53.130;18.104;2024-02-04T09:15:46;100365.00;;;
79495;BMP180;68951;53.130;18.104;2024-02-04T09:18:14;100374.20;;;
79495;BMP180;68951;53.130;18.104;2024-02-04T09:20:40;100365.00;;;
79495;BMP180;68951;53.130;18.104;2024-02-04T09:23:07;100358.20;;;
79495;BMP180;68951;53.130;18.104;2024-02-04T09:25:34;100363.00;;;
79495;BMP180;68951;53.130;18.104;2024-02-04T09:28:01;100363.80;;;
79495;BMP180;68951;53.130;18.104;2024-02-04T09:30:27;100361.80;;;
79495;BMP180;68951;53.130;18.104;2024-02-04T09:32:54;100364.40;;;
79495;BMP180;68951;53.130;18.104;2024-02-04T09:35:21;100357.80;;;
79495;BMP180;68951;53.130;18.104;2024-02-04T09:37:48;100353.60;;;
79495;BMP180;68951;53.130;18.104;2024-02-04T09:40:15;100343.00;;;
79495;BMP180;68951;53.130;18.104;2024-02-04T09:42:42;100345.00;;;
79495;BMP180;68951;53.130;18.104;2024-02-04T09:45:09;100341.40;;;
79495;BMP180;68951;53.130;18.104;2024-02-04T09:47:39;100343.40;;;
79495;BMP180;68951;53.130;18.104;2024-02-04T09:50:07;100351.00;;;
79495;BMP180;68951;53.130;18.104;2024-02-04T09:52:40;100348.00;;;
79495;BMP180;68951;53.130;18.104;2024-02-04T09:55:12;100354.40;;;
79495;BMP180;68951;53.130;18.104;2024-02-04T09:57:40;100354.60;;;
79495;BMP180;68951;53.130;18.104;2024-02-04T10:00:08;100361.60;;;
79495;BMP180;68951;53.130;18.104;2024-02-04T10:02:37;100361.00;;;
79495;BMP180;68951;53.130;18.104;2024-02-04T10:05:04;100352.80;;;
79495;BMP180;68951;53.130;18.104;2024-02-04T10:07:31;100355.60;;;
79495;BMP180;68951;53.130;18.104;2024-02-04T10:09:57;100342.60;;;
79495;BMP180;68951;53.130;18.104;2024-02-04T10:12:24;100342.20;;;
79495;BMP180;68951;53.130;18.104;2024-02-04T10:14:51;100347.80;;;
79495;BMP180;68951;53.130;18.104;2024-02-04T10:17:18;100324.80;;;
79495;BMP180;68951;53.130;18.104;2024-02-04T10:19:48;100324.60;;;
79495;BMP180;68951;53.130;18.104;2024-02-04T10:22:15;100309.20;;;
79495;BMP180;68951;53.130;18.104;2024-02-04T10:24:43;100311.00;;;
79495;BMP180;68951;53.130;18.104;2024-02-04T10:27:10;100318.60;;;
79495;BMP180;68951;53.130;18.104;2024-02-04T10:29:38;100315.60;;;
79495;BMP180;68951;53.130;18.104;2024-02-04T10:32:05;100313.20;;;
79495;BMP180;68951;53.130;18.104;2024-02-04T10:34:37;100317.40;;;
79495;BMP180;68951;53.130;18.104;2024-02-04T10:37:05;100296.20;;;
79495;BMP180;68951;53.130;18.104;2024-02-04T10:39:32;100294.80;;;
79495;BMP180;68951;53.130;18.104;2024-02-04T10:42:02;100288.20;;;
79495;BMP180;68951;53.130;18.104;2024-02-04T10:44:35;100291.80;;;
79495;BMP180;68951;53.130;18.104;2024-02-04T10:47:09;100278.40;;;
79495;BMP180;68951;53.130;18.104;2024-02-04T10:49:40;100274.80;;;
79495;BMP180;68951;53.130;18.104;2024-02-04T10:52:11;100272.60;;;
79495;BMP180;68951;53.130;18.104;2024-02-04T10:54:39;100261.40;;;
79495;BMP180;68951;53.130;18.104;2024-02-04T10:57:13;100257.60;;;
79495;BMP180;68951;53.130;18.104;2024-02-04T10:59:42;100243.40;;;
79495;BMP180;68951;53.130;18.104;2024-02-04T11:02:11;100233.60;;;
79495;BMP180;68951;53.130;18.104;2024-02-04T11:04:38;100235.60;;;
79495;BMP180;68951;53.130;18.104;2024-02-04T11:07:06;100227.00;;;
79495;BMP180;68951;53.130;18.104;2024-02-04T11:09:33;100229.60;;;
79495;BMP180;68951;53.130;18.104;2024-02-04T11:12:01;100212.80;;;
79495;BMP180;68951;53.130;18.104;2024-02-04T11:14:31;100222.80;;;
79495;BMP180;68951;53.130;18.104;2024-02-04T11:20:40;100228.60;;;
79495;BMP180;68951;53.130;18.104;2024-02-04T11:23:32;100215.80;;;
79495;BMP180;68951;53.130;18.104;2024-02-04T11:26:01;100214.60;;;
79495;BMP180;68951;53.130;18.104;2024-02-04T11:28:28;100201.20;;;
79495;BMP180;68951;53.130;18.104;2024-02-04T11:30:55;100210.60;;;
79495;BMP180;68951;53.130;18.104;2024-02-04T11:33:23;100218.00;;;
79495;BMP180;68951;53.130;18.104;2024-02-04T11:36:05;100212.00;;;
79495;BMP180;68951;53.130;18.104;2024-02-04T11:38:37;100200.80;;;
79495;BMP180;68951;53.130;18.104;2024-02-04T11:41:05;100204.60;;;
79495;BMP180;68951;53.130;18.104;2024-02-04T11:43:36;100207.40;;;
79495;BMP180;68951;53.130;18.104;2024-02-04T11:46:04;100196.00;;;
79495;BMP180;68951;53.130;18.104;2024-02-04T11:48:35;100189.60;;;
79495;BMP180;68951;53.130;18.104;2024-02-04T11:51:05;100192.80;;;
79495;BMP180;68951;53.130;18.104;2024-02-04T11:53:32;100191.60;;;
79495;BMP180;68951;53.130;18.104;2024-02-04T11:56:02;100194.40;;;
79495;BMP180;68951;53.130;18.104;2024-02-04T11:58:30;100195.60;;;
79495;BMP180;68951;53.130;18.104;2024-02-04T12:00:58;100198.00;;;
79495;BMP180;68951;53.130;18.104;2024-02-04T12:03:33;100201.00;;;
79495;BMP180;68951;53.130;18.104;2024-02-04T12:06:00;100182.40;;;
79495;BMP180;68951;53.130;18.104;2024-02-04T12:08:32;100186.40;;;
79495;BMP180;68951;53.130;18.104;2024-02-04T12:11:00;100192.40;;;
79495;BMP180;68951;53.130;18.104;2024-02-04T12:13:29;100183.60;;;
79495;BMP180;68951;53.130;18.104;2024-02-04T12:15:55;100194.80;;;
79495;BMP180;68951;53.130;18.104;2024-02-04T12:18:22;100184.40;;;
79495;BMP180;68951;53.130;18.104;2024-02-04T12:20:49;100183.80;;;
79495;BMP180;68951;53.130;18.104;2024-02-04T12:23:18;100196.20;;;
79495;BMP180;68951;53.130;18.104;2024-02-04T12:25:45;100189.60;;;
79495;BMP180;68951;53.130;18.104;2024-02-04T12:28:14;100187.00;;;
79495;BMP180;68951;53.130;18.104;2024-02-04T12:30:54;100181.20;;;
79495;BMP180;68951;53.130;18.104;2024-02-04T12:33:21;100175.40;;;
79495;BMP180;68951;53.130;18.104;2024-02-04T12:35:50;100191.80;;;
79495;BMP180;68951;53.130;18.104;2024-02-04T12:38:18;100182.20;;;
79495;BMP180;68951;53.130;18.104;2024-02-04T12:40:46;100186.00;;;
79495;BMP180;68951;53.130;18.104;2024-02-04T12:43:14;100182.40;;;
79495;BMP180;68951;53.130;18.104;2024-02-04T12:45:42;100180.60;;;
79495;BMP180;68951;53.130;18.104;2024-02-04T12:48:09;100174.40;;;
79495;BMP180;68951;53.130;18.104;2024-02-04T12:50:37;100168.40;;;
79495;BMP180;68951;53.130;18.104;2024-02-04T12:53:09;100168.40;;;
79495;BMP180;68951;53.130;18.104;2024-02-04T12:55:39;100155.00;;;
79495;BMP180;68951;53.130;18.104;2024-02-04T12:58:09;100152.60;;;
79495;BMP180;68951;53.130;18.104;2024-02-04T13:00:36;100153.20;;;
79495;BMP180;68951;53.130;18.104;2024-02-04T13:03:05;100143.20;;;
79495;BMP180;68951;53.130;18.104;2024-02-04T13:05:32;100150.60;;;
79495;BMP180;68951;53.130;18.104;2024-02-04T13:08:01;100146.40;;;
79495;BMP180;68951;53.130;18.104;2024-02-04T13:10:34;100135.60;;;
79495;BMP180;68951;53.130;18.104;2024-02-04T13:13:05;100139.40;;;
79495;BMP180;68951;53.130;18.104;2024-02-04T13:15:42;100132.40;;;
79495;BMP180;68951;53.130;18.104;2024-02-04T13:18:10;100143.00;;;
79495;BMP180;68951;53.130;18.104;2024-02-04T13:20:38;100141.00;;;
79495;BMP180;68951;53.130;18.104;2024-02-04T13:23:08;100131.80;;;
79495;BMP180;68951;53.130;18.104;2024-02-04T13:25:34;100140.80;;;
79495;BMP180;68951;53.130;18.104;2024-02-04T13:28:01;100122.80;;;
79495;BMP180;68951;53.130;18.104;2024-02-04T13:30:29;100128.20;;;
79495;BMP180;68951;53.130;18.104;2024-02-04T13:32:56;100135.00;;;
79495;BMP180;68951;53.130;18.104;2024-02-04T13:35:24;100116.00;;;
79495;BMP180;68951;53.130;18.104;2024-02-04T13:37:50;100111.00;;;
79495;BMP180;68951;53.130;18.104;2024-02-04T13:40:19;100111.40;;;
79495;BMP180;68951;53.130;18.104;2024-02-04T13:42:47;100115.20;;;
79495;BMP180;68951;53.130;18.104;2024-02-04T13:45:14;100102.40;;;
79495;BMP180;68951;53.130;18.104;2024-02-04T13:47:41;100100.00;;;
79495;BMP180;68951;53.130;18.104;2024-02-04T13:50:10;100095.80;;;
79495;BMP180;68951;53.130;18.104;2024-02-04T13:52:38;100099.80;;;
79495;BMP180;68951;53.130;18.104;2024-02-04T13:55:05;100099.20;;;
79495;BMP180;68951;53.130;18.104;2024-02-04T13:57:34;100096.60;;;
79495;BMP180;68951;53.130;18.104;2024-02-04T14:00:02;100081.60;;;
79495;BMP180;68951;53.130;18.104;2024-02-04T14:02:31;100088.80;;;
79495;BMP180;68951;53.130;18.104;2024-02-04T14:04:58;100091.40;;;
79495;BMP180;68951;53.130;18.104;2024-02-04T14:07:26;100087.60;;;
79495;BMP180;68951;53.130;18.104;2024-02-04T14:09:53;100085.80;;;
79495;BMP180;68951;53.130;18.104;2024-02-04T14:12:20;100091.60;;;
79495;BMP180;68951;53.130;18.104;2024-02-04T14:14:47;100081.20;;;
79495;BMP180;68951;53.130;18.104;2024-02-04T14:17:14;100080.00;;;
79495;BMP180;68951;53.130;18.104;2024-02-04T14:19:40;100091.20;;;
79495;BMP180;68951;53.130;18.104;2024-02-04T14:22:07;100076.60;;;
79495;BMP180;68951;53.130;18.104;2024-02-04T14:24:34;100071.00;;;
79495;BMP180;68951;53.130;18.104;2024-02-04T14:27:01;100078.60;;;
79495;BMP180;68951;53.130;18.104;2024-02-04T14:29:28;100089.80;;;
79495;BMP180;68951;53.130;18.104;2024-02-04T14:31:54;100074.40;;;
79495;BMP180;68951;53.130;18.104;2024-02-04T14:34:22;100075.80;;;
79495;BMP180;68951;53.130;18.104;2024-02-04T14:36:49;100074.40;;;
79495;BMP180;68951;53.130;18.104;2024-02-04T14:39:16;100074.80;;;
79495;BMP180;68951;53.130;18.104;2024-02-04T14:41:44;100082.20;;;
79495;BMP180;68951;53.130;18.104;2024-02-04T14:44:11;100077.60;;;
79495;BMP180;68951;53.130;18.104;2024-02-04T14:46:38;100071.80;;;
79495;BMP180;68951;53.130;18.104;2024-02-04T14:49:05;100069.60;;;
79495;BMP180;68951;53.130;18.104;2024-02-04T14:51:32;100066.00;;;
79495;BMP180;68951;53.130;18.104;2024-02-04T14:53:59;100067.60;;;
79495;BMP180;68951;53.130;18.104;2024-02-04T14:56:26;100065.40;;;